createdAt,value
2022-10-04T00:00:35.822Z,50.97
2022-10-04T00:02:18.509Z,50.97
2022-10-04T00:03:51.374Z,51.60
2022-10-04T00:05:23.359Z,51.66
2022-10-04T00:06:58.409Z,51.22
2022-10-04T00:08:32.999Z,51.53
2022-10-04T00:10:08.586Z,51.64
2022-10-04T00:11:43.661Z,51.06
2022-10-04T00:13:17.390Z,51.72
2022-10-04T00:14:49.149Z,51.12
2022-10-04T00:16:21.873Z,50.97
2022-10-04T00:18:00.249Z,51.10
2022-10-04T00:19:38.319Z,51.13
2022-10-04T00:21:10.068Z,51.18
2022-10-04T00:22:41.803Z,51.66
2022-10-04T00:24:18.866Z,51.34
2022-10-04T00:26:03.383Z,51.46
2022-10-04T00:27:35.433Z,51.57
2022-10-04T00:29:26.458Z,51.91
2022-10-04T00:31:08.441Z,51.85
2022-10-04T00:32:40.450Z,51.56
2022-10-04T00:34:12.257Z,52.02
2022-10-04T00:35:44.025Z,51.64
2022-10-04T00:37:16.396Z,51.67
2022-10-04T00:39:01.812Z,51.80
2022-10-04T00:40:34.351Z,52.27
2022-10-04T00:42:09.695Z,51.66
2022-10-04T00:43:42.757Z,51.72
2022-10-04T00:45:37.193Z,51.76
2022-10-04T00:47:19.837Z,52.24
2022-10-04T00:48:51.377Z,51.81
2022-10-04T00:50:36.601Z,51.59
2022-10-04T00:52:11.899Z,51.93
2022-10-04T00:54:01.726Z,52.27
2022-10-04T00:55:53.854Z,52.45
2022-10-04T00:57:31.626Z,51.83
2022-10-04T00:59:11.174Z,51.66
2022-10-04T01:00:42.712Z,51.79
2022-10-04T01:02:18.111Z,52.44
2022-10-04T01:03:51.051Z,51.86
2022-10-04T01:05:27.496Z,51.81
2022-10-04T01:06:59.750Z,52.22
2022-10-04T01:08:33.319Z,51.93
2022-10-04T01:10:07.714Z,51.89
2022-10-04T01:11:41.926Z,51.89
2022-10-04T01:13:14.751Z,52.28
2022-10-04T01:14:50.974Z,52.06
2022-10-04T01:16:23.250Z,52.37
2022-10-04T01:18:21.135Z,51.75
2022-10-04T01:19:53.690Z,51.71
2022-10-04T01:21:27.358Z,52.05
2022-10-04T01:22:59.236Z,52.27
2022-10-04T01:24:34.954Z,52.12
2022-10-04T01:26:31.919Z,52.72
2022-10-04T01:28:13.280Z,52.07
2022-10-04T01:30:00.756Z,52.95
2022-10-04T01:31:36.899Z,52.97
2022-10-04T01:33:16.845Z,52.25
2022-10-04T01:37:39.476Z,52.21
2022-10-04T01:39:11.126Z,52.74
2022-10-04T01:40:55.386Z,52.59
2022-10-04T01:42:28.902Z,52.51
2022-10-04T01:44:00.970Z,52.68
2022-10-04T01:45:39.884Z,52.49
2022-10-04T01:47:20.045Z,52.85
2022-10-04T01:48:51.993Z,52.24
2022-10-04T01:50:31.224Z,52.30
2022-10-04T01:52:05.407Z,52.74
2022-10-04T01:53:45.186Z,52.55
2022-10-04T01:55:55.418Z,52.76
2022-10-04T02:03:25.752Z,52.77
2022-10-04T02:04:58.374Z,52.83
2022-10-04T02:06:30.516Z,52.40
2022-10-04T02:08:02.808Z,52.52
2022-10-04T02:09:34.710Z,52.61
2022-10-04T02:11:06.466Z,52.77
2022-10-04T02:12:38.918Z,52.15
2022-10-04T02:14:16.259Z,52.49
2022-10-04T02:15:48.132Z,52.80
2022-10-04T02:17:23.662Z,52.47
2022-10-04T02:18:55.368Z,52.63
2022-10-04T02:20:27.526Z,52.76
2022-10-04T02:21:59.091Z,52.56
2022-10-04T02:23:30.768Z,52.51
2022-10-04T02:25:02.551Z,52.66
2022-10-04T02:26:34.291Z,52.67
2022-10-04T02:28:06.046Z,52.82
2022-10-04T02:29:39.095Z,52.49
2022-10-04T02:31:29.353Z,52.77
2022-10-04T02:33:01.215Z,52.80
2022-10-04T02:34:33.199Z,52.38
2022-10-04T02:36:09.518Z,52.65
2022-10-04T02:37:41.556Z,52.46
2022-10-04T02:39:16.880Z,52.69
2022-10-04T02:40:58.458Z,52.55
2022-10-04T02:42:50.995Z,52.93
2022-10-04T02:44:25.485Z,53.13
2022-10-04T02:46:00.598Z,53.27
2022-10-04T02:47:37.164Z,52.75
2022-10-04T02:49:12.677Z,53.30
2022-10-04T02:50:49.325Z,53.09
2022-10-04T02:52:28.514Z,52.89
2022-10-04T02:54:03.400Z,52.63
2022-10-04T02:55:36.329Z,52.98
2022-10-04T02:57:18.294Z,52.71
2022-10-04T02:58:50.040Z,52.59
2022-10-04T03:00:31.081Z,53.22
2022-10-04T03:02:03.179Z,52.96
2022-10-04T03:03:38.093Z,52.40
2022-10-04T03:05:10.838Z,52.66
2022-10-04T03:06:43.232Z,52.52
2022-10-04T03:08:14.955Z,53.02
2022-10-04T03:09:46.556Z,52.63
2022-10-04T03:11:19.343Z,52.79
2022-10-04T03:12:51.001Z,52.64
2022-10-04T03:14:23.013Z,52.57
2022-10-04T03:15:54.603Z,52.76
2022-10-04T03:17:26.330Z,53.30
2022-10-04T03:18:58.250Z,52.95
2022-10-04T03:20:29.938Z,52.75
2022-10-04T03:22:02.766Z,53.27
2022-10-04T03:23:34.319Z,53.11
2022-10-04T03:25:06.288Z,52.58
2022-10-04T03:26:43.819Z,52.60
2022-10-04T03:28:15.733Z,52.77
2022-10-04T03:29:47.281Z,52.62
2022-10-04T03:31:20.139Z,52.93
2022-10-04T03:32:52.040Z,52.89
2022-10-04T03:34:28.222Z,53.15
2022-10-04T03:36:01.030Z,53.28
2022-10-04T03:37:34.960Z,52.88
2022-10-04T03:39:07.924Z,52.76
2022-10-04T03:40:39.847Z,52.92
2022-10-04T03:42:21.125Z,52.53
2022-10-04T03:43:53.789Z,53.02
2022-10-04T03:45:25.409Z,53.11
2022-10-04T03:46:56.975Z,53.21
2022-10-04T03:48:32.494Z,53.13
2022-10-04T03:50:06.997Z,52.86
2022-10-04T03:51:38.728Z,53.49
2022-10-04T03:53:16.389Z,53.70
2022-10-04T03:54:48.449Z,53.07
2022-10-04T03:56:26.366Z,52.95
2022-10-04T03:57:57.890Z,53.08
2022-10-04T03:59:29.493Z,53.74
2022-10-04T04:01:03.850Z,53.29
2022-10-04T04:02:45.840Z,52.93
2022-10-04T04:04:19.271Z,53.36
2022-10-04T04:05:54.566Z,53.46
2022-10-04T04:07:30.931Z,53.20
2022-10-04T04:09:02.558Z,54.00
2022-10-04T04:10:42.878Z,53.55
2022-10-04T04:12:21.114Z,53.78
2022-10-04T04:14:04.469Z,53.18
2022-10-04T04:15:36.316Z,53.13
2022-10-04T04:17:37.059Z,53.23
2022-10-04T04:19:12.115Z,53.36
2022-10-04T04:20:43.638Z,53.99
2022-10-04T04:22:16.090Z,53.23
2022-10-04T04:23:50.512Z,53.85
2022-10-04T04:25:23.950Z,53.89
2022-10-04T04:26:59.568Z,53.79
2022-10-04T04:28:34.745Z,54.26
2022-10-04T04:30:06.911Z,53.42
2022-10-04T04:31:41.413Z,54.07
2022-10-04T04:33:20.377Z,53.55
2022-10-04T04:34:53.790Z,53.58
2022-10-04T04:36:25.702Z,54.02
2022-10-04T04:38:26.550Z,54.05
2022-10-04T04:39:58.337Z,53.74
2022-10-04T04:41:32.111Z,54.30
2022-10-04T04:43:03.654Z,54.19
2022-10-04T04:44:35.432Z,53.72
2022-10-04T04:46:26.653Z,53.74
2022-10-04T04:48:00.383Z,53.60
2022-10-04T04:49:32.879Z,53.88
2022-10-04T04:51:05.383Z,53.79
2022-10-04T04:52:37.393Z,53.63
2022-10-04T04:54:09.142Z,54.31
2022-10-04T04:56:02.371Z,53.85
2022-10-04T04:57:33.575Z,54.10
2022-10-04T04:59:05.261Z,53.47
2022-10-04T05:00:38.933Z,53.77
2022-10-04T05:02:28.603Z,53.31
2022-10-04T05:04:02.471Z,53.46
2022-10-04T05:05:34.873Z,53.70
2022-10-04T05:07:07.020Z,53.87
2022-10-04T05:08:41.429Z,54.40
2022-10-04T05:10:32.875Z,53.93
2022-10-04T05:12:08.020Z,54.39
2022-10-04T05:13:41.195Z,53.71
2022-10-04T05:15:12.876Z,53.37
2022-10-04T05:16:44.766Z,53.85
2022-10-04T05:18:32.476Z,54.38
2022-10-04T05:20:04.366Z,53.44
2022-10-04T05:21:38.599Z,54.30
2022-10-04T05:23:14.108Z,54.48
2022-10-04T05:24:46.593Z,53.49
2022-10-04T05:26:20.424Z,54.49
2022-10-04T05:27:52.189Z,53.95
2022-10-04T05:29:25.056Z,53.80
2022-10-04T05:31:01.300Z,53.67
2022-10-04T05:32:35.508Z,54.00
2022-10-04T05:34:15.479Z,54.20
2022-10-04T05:35:54.355Z,54.11
2022-10-04T05:37:30.230Z,54.04
2022-10-04T05:39:21.089Z,53.58
2022-10-04T05:41:04.853Z,54.26
2022-10-04T05:42:38.447Z,54.00
2022-10-04T05:44:22.013Z,53.92
2022-10-04T05:46:12.539Z,53.82
2022-10-04T05:47:44.391Z,53.98
2022-10-04T05:49:19.306Z,54.08
2022-10-04T05:50:51.489Z,54.11
2022-10-04T05:52:30.592Z,54.12
2022-10-04T05:54:02.454Z,54.08
2022-10-04T05:55:47.336Z,53.76
2022-10-04T05:57:54.682Z,53.81
2022-10-04T05:59:31.937Z,53.69
2022-10-04T06:01:22.471Z,53.68
2022-10-04T06:03:06.915Z,53.80
2022-10-04T06:05:16.024Z,53.49
2022-10-04T06:06:50.266Z,53.53
2022-10-04T06:08:22.074Z,53.40
2022-10-04T06:09:57.561Z,53.50
2022-10-04T06:11:40.879Z,53.60
2022-10-04T06:13:15.692Z,53.72
2022-10-04T06:14:48.468Z,53.42
2022-10-04T06:16:23.125Z,53.35
2022-10-04T06:18:24.291Z,53.21
2022-10-04T06:20:08.653Z,53.36
2022-10-04T06:21:58.961Z,53.30
2022-10-04T06:23:30.581Z,53.34
2022-10-04T06:25:03.699Z,53.25
2022-10-04T06:26:37.278Z,53.44
2022-10-04T06:28:27.735Z,53.41
2022-10-04T06:30:06.262Z,53.17
2022-10-04T06:31:57.151Z,53.22
2022-10-04T06:33:47.084Z,53.29
2022-10-04T06:35:37.602Z,53.57
2022-10-04T06:37:18.636Z,53.60
2022-10-04T06:39:05.863Z,53.33
2022-10-04T06:40:39.933Z,53.98
2022-10-04T06:42:18.498Z,53.33
2022-10-04T06:44:04.818Z,53.01
2022-10-04T06:45:49.412Z,53.15
2022-10-04T06:47:21.185Z,52.99
2022-10-04T06:49:11.300Z,52.50
2022-10-04T06:50:42.895Z,52.70
2022-10-04T06:52:17.350Z,52.36
2022-10-04T06:53:58.145Z,51.94
2022-10-04T06:55:49.086Z,51.80
2022-10-04T06:57:24.131Z,51.73
2022-10-04T06:58:55.949Z,51.61
2022-10-04T07:00:28.126Z,51.64
2022-10-04T07:02:01.424Z,51.28
2022-10-04T07:03:51.255Z,51.60
2022-10-04T07:05:30.570Z,51.08
2022-10-04T07:07:22.681Z,51.36
2022-10-04T07:08:59.702Z,50.92
2022-10-04T07:10:32.624Z,51.23
2022-10-04T07:12:09.095Z,50.74
2022-10-04T07:13:45.933Z,51.12
2022-10-04T07:15:21.980Z,50.85
2022-10-04T07:16:56.308Z,50.92
2022-10-04T07:18:35.471Z,51.25
2022-10-04T07:20:07.379Z,51.03
2022-10-04T07:21:52.604Z,51.19
2022-10-04T07:23:29.017Z,50.78
2022-10-04T07:25:06.053Z,50.51
2022-10-04T07:26:37.776Z,50.82
2022-10-04T07:28:28.280Z,50.49
2022-10-04T07:30:01.493Z,50.32
2022-10-04T07:31:34.762Z,50.26
2022-10-04T07:33:06.388Z,50.28
2022-10-04T07:34:45.734Z,50.26
2022-10-04T07:36:22.425Z,50.62
2022-10-04T07:37:54.858Z,50.57
2022-10-04T07:39:28.447Z,50.51
2022-10-04T07:41:09.335Z,50.91
2022-10-04T07:42:47.128Z,50.74
2022-10-04T07:44:31.221Z,50.45
2022-10-04T07:46:05.444Z,50.50
2022-10-04T07:47:38.477Z,50.48
2022-10-04T07:49:17.402Z,50.50
2022-10-04T07:50:49.097Z,50.51
2022-10-04T07:52:50.967Z,50.55
2022-10-04T07:54:24.870Z,50.16
2022-10-04T07:55:56.953Z,50.30
2022-10-04T07:57:34.918Z,50.40
2022-10-04T07:59:25.647Z,50.40
2022-10-04T08:00:59.709Z,50.33
2022-10-04T08:02:50.215Z,50.28
2022-10-04T08:04:43.331Z,49.89
2022-10-04T08:06:17.268Z,49.95
2022-10-04T08:07:49.631Z,49.94
2022-10-04T08:09:40.090Z,49.97
2022-10-04T08:11:17.478Z,49.80
2022-10-04T08:12:50.606Z,49.99
2022-10-04T08:14:31.326Z,49.89
2022-10-04T08:16:04.313Z,49.73
2022-10-04T08:17:45.283Z,49.79
2022-10-04T08:19:36.305Z,49.58
2022-10-04T08:21:08.468Z,49.78
2022-10-04T08:22:51.087Z,50.07
2022-10-04T08:24:29.020Z,49.42
2022-10-04T08:26:19.331Z,49.38
2022-10-04T08:28:12.759Z,49.22
2022-10-04T08:29:44.438Z,48.67
2022-10-04T08:31:31.819Z,48.80
2022-10-04T08:33:06.694Z,48.67
2022-10-04T08:35:01.990Z,48.68
2022-10-04T08:36:39.770Z,48.54
2022-10-04T08:38:30.319Z,48.81
2022-10-04T08:40:14.076Z,48.87
2022-10-04T08:41:52.167Z,48.86
2022-10-04T08:43:37.301Z,48.38
2022-10-04T08:45:14.920Z,48.60
2022-10-04T08:47:10.724Z,48.51
2022-10-04T08:48:51.194Z,48.52
2022-10-04T08:50:26.323Z,48.26
2022-10-04T08:52:16.833Z,48.38
2022-10-04T08:53:48.764Z,48.55
2022-10-04T08:55:29.239Z,48.33
2022-10-04T08:57:20.464Z,48.54
2022-10-04T08:59:20.877Z,48.44
2022-10-04T09:01:12.015Z,48.26
2022-10-04T09:03:05.776Z,48.17
2022-10-04T09:04:37.387Z,48.14
2022-10-04T09:06:27.426Z,48.05
2022-10-04T09:08:17.688Z,47.90
2022-10-04T09:09:58.596Z,47.99
2022-10-04T09:11:45.900Z,47.76
2022-10-04T09:13:24.415Z,47.37
2022-10-04T09:15:05.299Z,47.76
2022-10-04T09:16:42.893Z,47.50
2022-10-04T09:18:18.164Z,47.38
2022-10-04T09:19:50.334Z,47.46
2022-10-04T09:21:22.006Z,47.76
2022-10-04T09:22:57.350Z,47.53
2022-10-04T09:24:51.965Z,47.37
2022-10-04T09:26:24.182Z,47.01
2022-10-04T09:28:15.579Z,47.00
2022-10-04T09:29:50.385Z,47.19
2022-10-04T09:31:30.841Z,47.23
2022-10-04T09:33:02.555Z,47.31
2022-10-04T09:34:41.966Z,47.21
2022-10-04T09:36:13.542Z,47.17
2022-10-04T09:37:48.555Z,46.99
2022-10-04T09:39:35.554Z,46.96
2022-10-04T09:41:27.347Z,47.08
2022-10-04T09:43:01.940Z,46.75
2022-10-04T09:44:48.941Z,46.98
2022-10-04T09:46:39.641Z,46.79
2022-10-04T09:48:17.624Z,46.71
2022-10-04T09:50:07.920Z,46.70
2022-10-04T09:51:51.554Z,46.52
2022-10-04T09:53:46.896Z,46.67
2022-10-04T09:55:18.447Z,46.98
2022-10-04T09:57:06.885Z,46.79
2022-10-04T09:58:53.447Z,46.95
2022-10-04T10:00:29.682Z,47.08
2022-10-04T10:02:10.119Z,46.58
2022-10-04T10:03:47.366Z,46.59
2022-10-04T10:05:18.993Z,46.63
2022-10-04T10:07:09.258Z,46.38
2022-10-04T10:08:46.572Z,46.71
2022-10-04T10:10:42.967Z,46.58
2022-10-04T10:12:36.096Z,46.38
2022-10-04T10:14:10.939Z,46.51
2022-10-04T10:15:59.640Z,46.19
2022-10-04T10:17:36.597Z,46.26
2022-10-04T10:19:13.150Z,46.47
2022-10-04T10:20:51.279Z,46.20
2022-10-04T10:22:49.427Z,46.17
2022-10-04T10:24:39.656Z,46.16
2022-10-04T10:26:17.395Z,46.62
2022-10-04T10:28:07.953Z,46.40
2022-10-04T10:29:42.457Z,46.28
2022-10-04T10:31:26.210Z,46.33
2022-10-04T10:33:17.521Z,46.18
2022-10-04T10:35:08.881Z,46.17
2022-10-04T10:36:53.313Z,46.11
2022-10-04T10:38:40.373Z,46.14
2022-10-04T10:40:28.664Z,45.91
2022-10-04T10:42:11.159Z,46.01
2022-10-04T10:43:46.563Z,45.90
2022-10-04T10:45:27.872Z,45.65
2022-10-04T10:47:12.484Z,45.60
2022-10-04T10:48:56.374Z,45.59
2022-10-04T10:51:00.361Z,45.86
2022-10-04T10:52:47.960Z,45.73
2022-10-04T10:54:35.218Z,45.46
2022-10-04T10:56:30.068Z,45.55
2022-10-04T10:58:08.758Z,45.63
2022-10-04T10:59:52.409Z,45.26
2022-10-04T11:01:27.226Z,45.13
2022-10-04T11:03:12.271Z,45.24
2022-10-04T11:05:00.723Z,45.02
2022-10-04T11:06:32.329Z,44.73
2022-10-04T11:08:04.849Z,44.67
2022-10-04T11:09:45.476Z,44.71
2022-10-04T11:11:36.560Z,44.34
2022-10-04T11:13:08.120Z,44.20
2022-10-04T11:14:58.426Z,44.25
2022-10-04T11:16:53.881Z,44.10
2022-10-04T11:18:25.425Z,43.84
2022-10-04T11:20:24.473Z,43.91
2022-10-04T11:22:15.454Z,43.69
2022-10-04T11:24:04.956Z,43.75
2022-10-04T11:25:48.553Z,43.57
2022-10-04T11:27:25.222Z,43.42
2022-10-04T11:28:57.772Z,43.31
2022-10-04T11:30:40.069Z,43.34
2022-10-04T11:32:20.747Z,43.42
2022-10-04T11:33:54.440Z,43.07
2022-10-04T11:35:35.241Z,43.13
2022-10-04T11:37:28.880Z,43.28
2022-10-04T11:39:21.245Z,43.57
2022-10-04T11:41:11.369Z,43.65
2022-10-04T11:43:18.498Z,43.38
2022-10-04T11:44:57.491Z,43.27
2022-10-04T11:46:38.179Z,43.28
2022-10-04T11:48:20.946Z,43.10
2022-10-04T11:50:23.230Z,42.90
2022-10-04T11:52:19.710Z,43.03
2022-10-04T11:54:04.462Z,42.67
2022-10-04T11:55:39.541Z,42.80
2022-10-04T11:57:15.522Z,43.04
2022-10-04T11:58:57.644Z,42.92
2022-10-04T12:00:47.177Z,43.03
2022-10-04T12:02:21.932Z,43.08
2022-10-04T12:03:53.594Z,43.07
2022-10-04T12:05:39.163Z,42.95
2022-10-04T12:07:40.134Z,42.93
2022-10-04T12:09:14.778Z,42.75
2022-10-04T12:11:06.595Z,42.67
2022-10-04T12:12:58.763Z,42.76
2022-10-04T12:14:34.511Z,42.71
2022-10-04T12:16:06.146Z,42.77
2022-10-04T12:17:58.933Z,42.65
2022-10-04T12:19:42.892Z,42.51
2022-10-04T12:21:34.976Z,42.47
2022-10-04T12:23:06.503Z,42.61
2022-10-04T12:24:58.886Z,42.57
2022-10-04T12:26:32.452Z,42.67
2022-10-04T12:28:24.691Z,42.76
2022-10-04T12:30:02.878Z,42.60
2022-10-04T12:31:41.925Z,42.75
2022-10-04T12:33:19.678Z,42.37
2022-10-04T12:35:05.534Z,42.41
2022-10-04T12:36:42.016Z,42.62
2022-10-04T12:38:25.968Z,42.42
2022-10-04T12:40:10.009Z,42.27
2022-10-04T12:41:47.729Z,42.20
2022-10-04T12:43:32.828Z,42.02
2022-10-04T12:45:07.420Z,42.13
2022-10-04T12:46:58.920Z,42.21
2022-10-04T12:48:54.219Z,42.06
2022-10-04T12:50:28.153Z,41.86
2022-10-04T12:52:15.643Z,41.73
2022-10-04T12:53:49.808Z,41.46
2022-10-04T12:55:38.180Z,41.41
2022-10-04T12:57:32.826Z,41.30
2022-10-04T12:59:08.078Z,40.98
2022-10-04T13:00:41.813Z,40.91
2022-10-04T13:02:21.898Z,40.91
2022-10-04T13:03:56.843Z,40.97
2022-10-04T13:05:34.675Z,40.74
2022-10-04T13:07:18.884Z,40.79
2022-10-04T13:08:53.395Z,40.79
2022-10-04T13:10:48.019Z,40.85
2022-10-04T13:12:26.083Z,41.02
2022-10-04T13:14:16.810Z,41.12
2022-10-04T13:17:49.730Z,40.69
2022-10-04T13:19:23.912Z,40.50
2022-10-04T13:21:02.029Z,40.29
2022-10-04T13:22:59.907Z,40.15
2022-10-04T13:24:55.332Z,39.91
2022-10-04T13:26:46.551Z,40.03
2022-10-04T13:28:37.489Z,39.82
2022-10-04T13:30:27.835Z,39.98
2022-10-04T13:32:19.626Z,39.81
2022-10-04T13:33:51.553Z,39.90
2022-10-04T13:35:24.034Z,40.14
2022-10-04T13:36:56.004Z,40.18
2022-10-04T13:38:35.991Z,40.35
2022-10-04T13:40:22.787Z,40.30
2022-10-04T13:42:12.926Z,40.47
2022-10-04T13:44:03.133Z,40.57
2022-10-04T13:45:37.852Z,40.33
2022-10-04T13:47:24.794Z,40.36
2022-10-04T13:48:56.668Z,40.32
2022-10-04T13:50:31.640Z,40.17
2022-10-04T13:52:27.666Z,40.24
2022-10-04T13:54:30.284Z,40.37
2022-10-04T13:56:37.145Z,40.33
2022-10-04T13:58:19.003Z,39.96
2022-10-04T14:00:02.435Z,40.00
2022-10-04T14:01:54.576Z,39.87
2022-10-04T14:03:29.783Z,39.78
2022-10-04T14:05:10.233Z,39.70
2022-10-04T14:06:47.779Z,39.56
2022-10-04T14:08:37.754Z,39.74
2022-10-04T14:10:34.781Z,39.82
2022-10-04T14:12:06.434Z,39.88
2022-10-04T14:13:57.709Z,40.07
2022-10-04T14:15:32.651Z,40.11
2022-10-04T14:17:10.430Z,40.07
2022-10-04T14:18:42.498Z,40.04
2022-10-04T14:20:33.497Z,40.19
2022-10-04T14:22:05.250Z,40.09
2022-10-04T14:23:51.464Z,40.05
2022-10-04T14:25:34.822Z,40.11
2022-10-04T14:27:09.613Z,39.81
2022-10-04T14:28:46.552Z,39.85
2022-10-04T14:30:23.304Z,39.77
2022-10-04T14:32:04.016Z,39.70
2022-10-04T14:33:54.816Z,39.52
2022-10-04T14:35:27.913Z,39.65
2022-10-04T14:37:04.702Z,39.67
2022-10-04T14:38:36.354Z,39.92
2022-10-04T14:40:08.145Z,39.80
2022-10-04T14:41:52.129Z,39.63
2022-10-04T14:43:23.722Z,39.50
2022-10-04T14:45:14.643Z,39.44
2022-10-04T14:46:51.931Z,39.49
2022-10-04T14:48:24.758Z,39.56
2022-10-04T14:50:15.326Z,39.60
2022-10-04T14:51:50.231Z,39.59
2022-10-04T14:53:28.324Z,39.73
2022-10-04T14:55:21.646Z,39.83
2022-10-04T14:57:00.967Z,39.87
2022-10-04T14:58:41.978Z,39.84
2022-10-04T15:00:24.108Z,39.90
2022-10-04T15:02:01.849Z,39.92
2022-10-04T15:03:36.451Z,39.73
2022-10-04T15:05:08.481Z,39.76
2022-10-04T15:06:49.955Z,39.84
2022-10-04T15:08:21.696Z,39.93
2022-10-04T15:10:12.197Z,39.88
2022-10-04T15:12:21.674Z,39.88
2022-10-04T15:13:56.028Z,39.82
2022-10-04T15:15:48.259Z,39.81
2022-10-04T15:17:26.384Z,39.54
2022-10-04T15:19:07.519Z,39.76
2022-10-04T15:20:48.685Z,39.65
2022-10-04T15:22:24.983Z,39.79
2022-10-04T15:24:13.338Z,39.64
2022-10-04T15:25:49.018Z,40.07
2022-10-04T15:27:29.815Z,39.72
2022-10-04T15:29:36.657Z,39.94
2022-10-04T15:31:11.251Z,39.71
2022-10-04T15:32:49.143Z,40.28
2022-10-04T15:34:44.385Z,40.19
2022-10-04T15:36:39.747Z,40.16
2022-10-04T15:38:14.385Z,40.18
2022-10-04T15:40:01.270Z,40.19
2022-10-04T15:41:37.593Z,40.30
2022-10-04T15:43:09.914Z,40.05
2022-10-04T15:44:53.972Z,40.45
2022-10-04T15:46:49.185Z,40.05
2022-10-04T15:48:21.420Z,40.07
2022-10-04T15:49:56.666Z,40.03
2022-10-04T15:51:29.012Z,40.22
2022-10-04T15:53:03.638Z,40.44
2022-10-04T15:54:41.798Z,40.49
2022-10-04T15:56:14.666Z,40.21
2022-10-04T15:57:46.674Z,40.58
2022-10-04T15:59:37.183Z,40.71
2022-10-04T16:01:27.568Z,40.85
2022-10-04T16:03:18.367Z,40.60
2022-10-04T16:04:59.494Z,40.52
2022-10-04T16:06:33.058Z,40.40
2022-10-04T16:08:11.209Z,40.50
2022-10-04T16:09:43.055Z,40.61
2022-10-04T16:11:14.911Z,40.74
2022-10-04T16:12:56.291Z,40.63
2022-10-04T16:14:36.590Z,40.67
2022-10-04T16:16:17.897Z,40.73
2022-10-04T16:17:53.440Z,40.99
2022-10-04T16:19:32.770Z,41.11
2022-10-04T16:21:16.490Z,41.24
2022-10-04T16:23:06.832Z,40.97
2022-10-04T16:24:40.024Z,41.14
2022-10-04T16:26:16.368Z,41.56
2022-10-04T16:27:57.892Z,41.60
2022-10-04T16:29:37.998Z,41.45
2022-10-04T16:31:20.181Z,41.44
2022-10-04T16:33:01.678Z,41.26
2022-10-04T16:34:48.365Z,41.59
2022-10-04T16:36:22.257Z,41.52
2022-10-04T16:38:04.174Z,41.46
2022-10-04T16:39:54.792Z,41.74
2022-10-04T16:41:32.897Z,41.73
2022-10-04T16:43:16.916Z,41.98
2022-10-04T16:45:20.778Z,41.95
2022-10-04T16:46:52.542Z,41.91
2022-10-04T16:48:33.748Z,41.76
2022-10-04T16:50:08.732Z,42.12
2022-10-04T16:52:03.062Z,42.13
2022-10-04T16:53:53.924Z,42.04
2022-10-04T16:55:25.606Z,42.38
2022-10-04T16:56:57.618Z,42.24
2022-10-04T16:58:30.940Z,42.37
2022-10-04T17:00:21.833Z,42.38
2022-10-04T17:02:03.674Z,42.25
2022-10-04T17:03:35.811Z,42.50
2022-10-04T17:05:17.274Z,42.66
2022-10-04T17:06:49.893Z,42.42
2022-10-04T17:08:25.365Z,42.45
2022-10-04T17:10:03.660Z,42.65
2022-10-04T17:11:55.663Z,42.66
2022-10-04T17:13:37.311Z,42.49
2022-10-04T17:15:15.168Z,42.69
2022-10-04T17:16:49.290Z,42.61
2022-10-04T17:18:30.894Z,42.50
2022-10-04T17:20:04.249Z,42.47
2022-10-04T17:21:54.898Z,42.57
2022-10-04T17:23:35.883Z,42.50
2022-10-04T17:25:07.693Z,42.50
2022-10-04T17:26:49.222Z,42.70
2022-10-04T17:28:21.462Z,42.62
2022-10-04T17:30:01.561Z,43.03
2022-10-04T17:31:44.922Z,42.80
2022-10-04T17:33:19.693Z,42.84
2022-10-04T17:35:06.931Z,42.68
2022-10-04T17:36:39.709Z,42.78
2022-10-04T17:38:13.953Z,42.84
2022-10-04T17:39:49.132Z,42.87
2022-10-04T17:41:40.458Z,42.77
2022-10-04T17:43:33.797Z,42.90
2022-10-04T17:45:24.180Z,42.81
2022-10-04T17:47:03.814Z,42.87
2022-10-04T17:49:04.085Z,42.86
2022-10-04T17:50:57.611Z,42.85
2022-10-04T17:52:52.747Z,42.98
2022-10-04T17:54:45.367Z,42.95
2022-10-04T17:56:23.692Z,43.40
2022-10-04T17:57:55.416Z,43.24
2022-10-04T17:59:31.110Z,43.27
2022-10-04T18:01:09.659Z,43.10
2022-10-04T18:02:49.487Z,43.36
2022-10-04T18:04:22.006Z,43.34
2022-10-04T18:05:57.681Z,43.75
2022-10-04T18:07:32.545Z,43.73
2022-10-04T18:09:04.133Z,43.77
2022-10-04T18:10:37.871Z,43.82
2022-10-04T18:12:27.650Z,43.81
2022-10-04T18:13:59.138Z,43.60
2022-10-04T18:15:32.715Z,43.70
2022-10-04T18:17:04.981Z,43.75
2022-10-04T18:18:43.303Z,43.67
2022-10-04T18:20:28.692Z,43.66
2022-10-04T18:22:19.369Z,43.62
2022-10-04T18:23:52.466Z,43.94
2022-10-04T18:25:26.292Z,43.84
2022-10-04T18:27:01.339Z,44.02
2022-10-04T18:28:34.957Z,43.89
2022-10-04T18:30:13.747Z,43.87
2022-10-04T18:31:45.558Z,43.99
2022-10-04T18:33:30.162Z,43.98
2022-10-04T18:35:22.677Z,44.09
2022-10-04T18:36:54.310Z,44.36
2022-10-04T18:38:29.416Z,44.67
2022-10-04T18:40:17.712Z,44.33
2022-10-04T18:42:00.532Z,44.72
2022-10-04T18:43:33.465Z,45.01
2022-10-04T18:45:17.856Z,44.82
2022-10-04T18:46:51.180Z,45.17
2022-10-04T18:48:23.154Z,45.28
2022-10-04T18:49:54.987Z,44.89
2022-10-04T18:51:28.423Z,45.19
2022-10-04T18:53:15.759Z,45.33
2022-10-04T18:54:48.576Z,45.47
2022-10-04T18:56:20.109Z,45.81
2022-10-04T18:58:34.276Z,45.12
2022-10-04T19:00:31.195Z,45.29
2022-10-04T19:02:08.003Z,45.25
2022-10-04T19:03:57.423Z,45.29
2022-10-04T19:05:35.209Z,45.10
2022-10-04T19:07:11.315Z,45.84
2022-10-04T19:08:43.021Z,45.37
2022-10-04T19:10:17.930Z,45.54
2022-10-04T19:11:58.546Z,45.73
2022-10-04T19:13:33.542Z,45.80
2022-10-04T19:15:09.802Z,45.39
2022-10-04T19:16:47.840Z,45.68
2022-10-04T19:18:36.442Z,45.55
2022-10-04T19:20:18.693Z,45.54
2022-10-04T19:21:55.259Z,45.91
2022-10-04T19:23:32.644Z,46.51
2022-10-04T19:25:13.480Z,45.79
2022-10-04T19:26:46.840Z,46.51
2022-10-04T19:28:26.976Z,46.27
2022-10-04T19:30:01.608Z,46.72
2022-10-04T19:31:33.283Z,46.90
2022-10-04T19:33:17.297Z,46.86
2022-10-04T19:34:49.243Z,46.14
2022-10-04T19:36:23.379Z,46.90
2022-10-04T19:38:13.728Z,46.41
2022-10-04T19:40:04.432Z,46.93
2022-10-04T19:41:38.902Z,47.08
2022-10-04T19:43:11.369Z,47.33
2022-10-04T19:45:01.341Z,46.51
2022-10-04T19:46:43.676Z,46.56
2022-10-04T19:48:24.690Z,47.01
2022-10-04T19:50:03.691Z,47.44
2022-10-04T19:51:55.664Z,47.38
2022-10-04T19:53:27.520Z,47.73
2022-10-04T19:55:31.568Z,47.23
2022-10-04T19:57:03.536Z,47.57
2022-10-04T19:58:48.206Z,47.17
2022-10-04T20:00:22.214Z,47.60
2022-10-04T20:01:53.856Z,47.93
2022-10-04T20:03:25.608Z,47.07
2022-10-04T20:04:57.617Z,47.25
2022-10-04T20:06:29.222Z,47.76
2022-10-04T20:08:05.203Z,47.17
2022-10-04T20:09:37.622Z,47.69
2022-10-04T20:11:13.172Z,47.04
2022-10-04T20:12:55.027Z,47.91
2022-10-04T20:14:26.571Z,47.47
2022-10-04T20:16:00.743Z,47.91
2022-10-04T20:17:33.186Z,47.98
2022-10-04T20:19:14.411Z,47.74
2022-10-04T20:21:03.570Z,47.39
2022-10-04T20:22:50.052Z,47.71
2022-10-04T20:24:37.067Z,48.14
2022-10-04T20:26:09.414Z,47.76
2022-10-04T20:27:41.033Z,48.50
2022-10-04T20:29:12.833Z,48.33
2022-10-04T20:30:47.954Z,48.23
2022-10-04T20:32:35.229Z,47.78
2022-10-04T20:34:36.637Z,48.21
2022-10-04T20:36:09.371Z,47.29
2022-10-04T20:38:07.883Z,47.83
2022-10-04T20:39:45.502Z,47.89
2022-10-04T20:41:29.892Z,47.64
2022-10-04T20:43:17.227Z,47.86
2022-10-04T20:44:58.160Z,47.71
2022-10-04T20:46:32.720Z,48.74
2022-10-04T20:48:04.394Z,48.96
2022-10-04T20:49:35.923Z,48.63
2022-10-04T20:51:09.087Z,48.82
2022-10-04T20:52:44.091Z,48.81
2022-10-04T20:54:18.657Z,48.66
2022-10-04T20:55:50.596Z,48.56
2022-10-04T20:57:24.056Z,48.76
2022-10-04T20:59:01.843Z,48.60
2022-10-04T21:00:34.061Z,48.94
2022-10-04T21:02:07.268Z,49.11
2022-10-04T21:03:39.029Z,48.50
2022-10-04T21:05:13.757Z,48.65
2022-10-04T21:07:08.163Z,48.59
2022-10-04T21:08:41.066Z,48.55
2022-10-04T21:10:16.274Z,48.14
2022-10-04T21:11:48.330Z,48.63
2022-10-04T21:13:38.616Z,48.29
2022-10-04T21:15:13.303Z,48.65
2022-10-04T21:16:48.690Z,49.11
2022-10-04T21:18:20.948Z,49.15
2022-10-04T21:19:52.777Z,49.58
2022-10-04T21:21:43.038Z,49.27
2022-10-04T21:23:33.919Z,49.16
2022-10-04T21:25:23.998Z,49.05
2022-10-04T21:26:56.721Z,49.64
2022-10-04T21:28:32.230Z,49.44
2022-10-04T21:30:06.531Z,49.57
2022-10-04T21:31:38.192Z,49.30
2022-10-04T21:33:09.764Z,49.88
2022-10-04T21:34:53.092Z,50.01
2022-10-04T21:36:25.252Z,49.55